createdAt,value
2018-11-26T00:13:06.796Z,34.30
2018-11-26T00:15:40.391Z,35.33
2018-11-26T00:18:14.009Z,33.63
2018-11-26T00:20:48.448Z,34.03
2018-11-26T00:23:22.144Z,32.77
2018-11-26T00:25:55.753Z,34.07
2018-11-26T00:28:29.310Z,33.43
2018-11-26T00:31:03.058Z,35.03
2018-11-26T00:33:36.721Z,37.20
2018-11-26T00:36:10.317Z,35.50
2018-11-26T00:38:44.051Z,37.33
2018-11-26T00:41:17.640Z,35.77
2018-11-26T00:43:51.586Z,35.03
2018-11-26T00:46:25.199Z,34.03
2018-11-26T00:48:58.838Z,37.43
2018-11-26T00:51:32.486Z,36.87
2018-11-26T00:54:06.081Z,35.37
2018-11-26T00:56:39.717Z,33.17
2018-11-26T00:59:13.410Z,36.13
2018-11-26T01:01:47.344Z,36.77
2018-11-26T01:04:20.976Z,34.70
2018-11-26T01:06:54.659Z,36.77
2018-11-26T01:09:28.251Z,36.87
2018-11-26T01:12:01.925Z,36.43
2018-11-26T01:14:35.496Z,38.23
2018-11-26T01:17:09.173Z,36.73
2018-11-26T01:19:43.049Z,37.50
2018-11-26T01:22:16.547Z,39.33
2018-11-26T01:24:50.406Z,38.00
2018-11-26T01:27:24.171Z,38.60
2018-11-26T01:29:57.933Z,38.83
2018-11-26T01:32:31.447Z,36.67
2018-11-26T01:35:06.346Z,38.13
2018-11-26T01:37:46.664Z,39.03
2018-11-26T01:40:21.769Z,37.33
2018-11-26T01:42:55.702Z,40.40
2018-11-26T01:45:29.271Z,39.03
2018-11-26T01:48:02.664Z,38.10
2018-11-26T01:50:36.597Z,38.40
2018-11-26T01:53:10.360Z,36.97
2018-11-26T01:55:44.033Z,37.30
2018-11-26T01:58:17.539Z,37.80
2018-11-26T02:00:51.289Z,39.60
2018-11-26T02:03:24.818Z,37.23
2018-11-26T02:05:58.495Z,35.23
2018-11-26T02:08:32.192Z,36.20
2018-11-26T02:11:06.536Z,38.57
2018-11-26T02:13:40.498Z,38.73
2018-11-26T02:16:14.199Z,38.13
2018-11-26T02:18:47.850Z,38.00
2018-11-26T02:21:21.662Z,37.27
2018-11-26T02:23:55.357Z,36.23
2018-11-26T02:26:29.117Z,38.67
2018-11-26T02:29:02.732Z,38.07
2018-11-26T02:31:36.583Z,38.90
2018-11-26T02:34:10.535Z,38.00
2018-11-26T02:36:44.158Z,36.30
2018-11-26T02:39:24.735Z,37.73
2018-11-26T02:41:58.860Z,34.47
2018-11-26T02:44:32.333Z,34.73
2018-11-26T02:47:06.335Z,36.73
2018-11-26T02:49:40.423Z,36.33
2018-11-26T02:52:14.649Z,36.77
2018-11-26T02:54:48.262Z,36.87
2018-11-26T02:57:22.054Z,35.30
2018-11-26T02:59:55.663Z,36.47
2018-11-26T03:02:29.820Z,37.13
2018-11-26T03:05:04.511Z,37.03
2018-11-26T03:07:38.553Z,36.43
2018-11-26T03:10:12.150Z,36.33
2018-11-26T03:12:45.754Z,35.87
2018-11-26T03:15:19.500Z,35.57
2018-11-26T03:17:53.023Z,36.40
2018-11-26T03:20:26.831Z,35.73
2018-11-26T03:23:00.754Z,35.53
2018-11-26T03:25:34.540Z,35.37
2018-11-26T03:28:08.055Z,34.67
2018-11-26T03:30:41.618Z,35.97
2018-11-26T03:33:15.309Z,36.33
2018-11-26T03:35:48.855Z,35.03
2018-11-26T03:38:34.444Z,34.30
2018-11-26T03:41:08.430Z,36.90
2018-11-26T03:43:42.333Z,34.00
2018-11-26T03:46:16.072Z,33.53
2018-11-26T03:48:49.725Z,35.20
2018-11-26T03:51:23.419Z,34.73
2018-11-26T03:53:57.722Z,34.97
2018-11-26T03:56:31.996Z,36.97
2018-11-26T03:59:05.871Z,35.93
2018-11-26T04:01:39.432Z,35.60
2018-11-26T04:04:12.922Z,35.23
2018-11-26T04:06:46.743Z,33.27
2018-11-26T04:09:20.187Z,34.73
2018-11-26T04:11:54.256Z,33.00
2018-11-26T04:14:28.494Z,34.20
2018-11-26T04:17:04.694Z,34.63
2018-11-26T04:19:39.024Z,34.63
2018-11-26T04:22:12.574Z,34.30
2018-11-26T04:24:46.572Z,34.83
2018-11-26T04:27:20.127Z,33.20
2018-11-26T04:29:53.764Z,33.63
2018-11-26T04:32:27.328Z,33.50
2018-11-26T04:35:00.910Z,34.50
2018-11-26T04:37:34.750Z,33.27
2018-11-26T04:40:09.825Z,33.67
2018-11-26T04:42:44.081Z,32.10
2018-11-26T04:45:17.687Z,33.53
2018-11-26T04:47:51.221Z,33.17
2018-11-26T04:50:25.959Z,32.60
2018-11-26T04:52:59.526Z,33.90
2018-11-26T04:55:33.053Z,32.53
2018-11-26T04:58:06.817Z,32.63
2018-11-26T05:00:40.481Z,34.27
2018-11-26T05:03:14.425Z,32.93
2018-11-26T05:05:48.040Z,30.33
2018-11-26T05:08:21.482Z,32.67
2018-11-26T05:10:55.179Z,30.93
2018-11-26T05:13:28.776Z,31.67
2018-11-26T05:16:02.809Z,29.47
2018-11-26T05:18:36.455Z,30.57
2018-11-26T05:21:10.254Z,31.90
2018-11-26T05:23:43.733Z,32.03
2018-11-26T05:26:17.636Z,30.70
2018-11-26T05:28:51.253Z,31.23
2018-11-26T05:31:24.759Z,32.43
2018-11-26T05:33:58.389Z,32.57
2018-11-26T05:36:32.296Z,33.93
2018-11-26T05:39:07.407Z,31.77
2018-11-26T05:41:40.882Z,30.90
2018-11-26T05:44:14.442Z,32.93
2018-11-26T05:46:48.029Z,30.47
2018-11-26T05:49:22.361Z,31.00
2018-11-26T05:51:55.350Z,31.87
2018-11-26T05:54:29.109Z,30.60
2018-11-26T05:57:02.558Z,30.67
2018-11-26T05:59:36.033Z,32.33
2018-11-26T06:02:09.818Z,32.20
2018-11-26T06:04:43.478Z,31.27
2018-11-26T06:07:17.182Z,31.43
2018-11-26T06:09:51.569Z,32.23
2018-11-26T06:12:25.465Z,34.90
2018-11-26T06:14:59.250Z,33.83
2018-11-26T06:17:33.019Z,33.83
2018-11-26T06:20:10.005Z,32.50
2018-11-26T06:22:44.825Z,34.23
2018-11-26T06:25:19.455Z,33.93
2018-11-26T06:27:52.894Z,32.57
2018-11-26T06:30:26.494Z,33.53
2018-11-26T06:33:00.260Z,31.73
2018-11-26T06:35:34.383Z,33.63
2018-11-26T06:38:08.130Z,33.80
2018-11-26T06:40:42.298Z,31.63
2018-11-26T06:43:17.427Z,34.10
2018-11-26T06:45:50.347Z,31.83
2018-11-26T06:48:24.142Z,33.27
2018-11-26T06:50:57.846Z,32.40
2018-11-26T06:53:31.524Z,33.87
2018-11-26T06:56:05.441Z,32.13
2018-11-26T06:58:38.784Z,33.40
2018-11-26T07:01:12.454Z,32.10
2018-11-26T07:03:46.185Z,34.13
2018-11-26T07:06:19.874Z,33.80
2018-11-26T07:08:53.606Z,35.10
2018-11-26T07:11:27.037Z,35.00
2018-11-26T07:14:00.942Z,35.10
2018-11-26T07:16:34.710Z,36.43
2018-11-26T07:19:08.218Z,34.87
2018-11-26T07:21:42.054Z,35.10
2018-11-26T07:24:16.836Z,34.67
2018-11-26T07:26:51.133Z,34.60
2018-11-26T07:29:24.750Z,32.77
2018-11-26T07:31:58.641Z,32.97
2018-11-26T07:34:32.173Z,34.33
2018-11-26T07:37:05.869Z,33.00
2018-11-26T07:39:39.546Z,34.13
